| time (UTC) | temp C | wind direction | speed KPH | gust KPH | rain 1hr cm | rain 24hr cm | rain mn cm | humidity % | barometer mb |
| 20260507122543 | 20 | 132 | 4.8 | 20.9 | 0.00 | 0.00 | 0.00 | 54 | 1019.6 |
| 20260507121415 | 20 | 126 | 9.7 | 20.9 | 0.00 | 0.00 | 0.00 | 56 | 1019.7 |
| 20260507120247 | 20 | 230 | 12.9 | 17.7 | 0.00 | 0.00 | 0.00 | 53 | 1019.8 |
| 20260507115120 | 19 | 165 | 17.7 | 20.9 | 0.00 | 0.00 | 0.00 | 57 | 1019.8 |
| 20260507113953 | 19 | 204 | 17.7 | 24.1 | 0.00 | 0.00 | 0.00 | 56 | 1019.9 |
| 20260507112825 | 21 | 138 | 8.0 | 17.7 | 0.00 | 0.00 | 0.00 | 50 | 1019.9 |
| 20260507111658 | 22 | 213 | 14.5 | 14.5 | 0.00 | 0.00 | 0.00 | 48 | 1019.9 |
| 20260507110530 | 21 | 132 | 4.8 | 6.4 | 0.00 | 0.00 | 0.00 | 48 | 1020.1 |
| 20260507105403 | 23 | 210 | 8.0 | 8.0 | 0.00 | 0.00 | 0.00 | 50 | 1020.1 |
| 20260507104210 | 20 | 144 | 6.4 | 8.0 | 0.00 | 0.00 | 0.00 | 56 | 1020.2 |
| 20260507103043 | 20 | 193 | 3.2 | 9.7 | 0.00 | 0.00 | 0.00 | 56 | 1020.4 |
| 20260507101915 | 18 | 192 | 9.7 | 17.7 | 0.00 | 0.00 | 0.00 | 60 | 1020.5 |
| 20260507100747 | 18 | 195 | 12.9 | 16.1 | 0.00 | 0.00 | 0.00 | 62 | 1020.6 |
| 20260507095620 | 19 | 132 | 6.4 | 9.7 | 0.00 | 0.00 | 0.00 | 63 | 1020.6 |
| 20260507094452 | 18 | 201 | 1.6 | 4.8 | 0.00 | 0.00 | 0.00 | 65 | 1020.6 |
| 20260507093324 | 17 | 126 | 0.0 | 8.0 | 0.00 | 0.00 | 0.00 | 70 | 1020.7 |
| 20260507092157 | 17 | 207 | 0.0 | 8.0 | 0.00 | 0.00 | 0.00 | 69 | 1020.6 |
| 20260507091029 | 16 | 198 | 9.7 | 11.3 | 0.00 | 0.00 | 0.00 | 74 | 1020.6 |
| 20260507085902 | 16 | 190 | 8.0 | 11.3 | 0.00 | 0.00 | 0.00 | 77 | 1020.6 |
| 20260507084734 | 16 | 246 | 3.2 | 4.8 | 0.00 | 0.00 | 0.00 | 76 | 1020.5 |
| 20260507083607 | 16 | 342 | 3.2 | 4.8 | 0.00 | 0.00 | 0.00 | 77 | 1020.5 |
| 20260507082440 | 16 | 207 | 0.0 | 1.6 | 0.00 | 0.00 | 0.00 | 77 | 1020.5 |
| 20260507081312 | 16 | 342 | 0.0 | 0.0 | 0.00 | 0.00 | 0.00 | 78 | 1020.4 |
| 20260507080145 | 15 | 344 | 0.0 | 1.6 | 0.00 | 0.00 | 0.00 | 79 | 1020.3 |
| 20260507075017 | 15 | 345 | 0.0 | 4.8 | 0.00 | 0.00 | 0.00 | 80 | 1020.2 |
| 20260507073850 | 15 | 333 | 0.0 | 6.4 | 0.00 | 0.00 | 0.00 | 82 | 1020.1 |
| 20260507072722 | 15 | 174 | 0.0 | 0.0 | 0.00 | 0.00 | 0.00 | 84 | 1020.3 |
| 20260507071555 | 15 | 209 | 0.0 | 0.0 | 0.00 | 0.00 | 0.00 | 82 | 1020.2 |
| 20260507070427 | 15 | 323 | 0.0 | 3.2 | 0.00 | 0.00 | 0.00 | 85 | 1020.0 |
| 20260507065300 | 14 | 123 | 1.6 | 4.8 | 0.00 | 0.00 | 0.00 | 86 | 1019.9 |
| 20260507064132 | 13 | 126 | 0.0 | 0.0 | 0.00 | 0.00 | 0.00 | 87 | 1019.9 |
| 20260507063005 | 12 | 125 | 0.0 | 0.0 | 0.00 | 0.00 | 0.00 | 92 | 1019.8 |
| 20260507061837 | 11 | 126 | 0.0 | 0.0 | 0.00 | 0.00 | 0.00 | 93 | 1019.6 |
| 20260507060710 | 11 | 126 | 0.0 | 0.0 | 0.00 | 0.00 | 0.00 | 95 | 1019.6 |
| 20260507055542 | 11 | 126 | 0.0 | 0.0 | 0.00 | 0.00 | 0.00 | 95 | 1019.6 |
| 20260507054415 | 11 | 121 | 0.0 | 0.0 | 0.00 | 0.00 | 0.00 | 95 | 1019.5 |
| 20260507053247 | 10 | 122 | 0.0 | 0.0 | 0.00 | 0.00 | 0.00 | 96 | 1019.3 |
| 20260507052120 | 10 | 128 | 0.0 | 0.0 | 0.00 | 0.00 | 0.00 | 97 | 1019.2 |
| 20260507050952 | 10 | 126 | 0.0 | 0.0 | 0.00 | 0.00 | 0.00 | 97 | 1019.2 |
| 20260507045825 | 10 | 84 | 0.0 | 0.0 | 0.00 | 0.00 | 0.00 | 98 | 1018.9 |
| 20260507044657 | 10 | 130 | 0.0 | 0.0 | 0.00 | 0.00 | 0.00 | 99 | 1018.9 |
| 20260507043530 | 9 | 124 | 0.0 | 0.0 | 0.00 | 0.00 | 0.00 | 99 | 1018.8 |
| 20260507042402 | 9 | 121 | 0.0 | 0.0 | 0.00 | 0.00 | 0.00 | 99 | 1018.6 |
| 20260507041235 | 9 | 124 | 0.0 | 0.0 | 0.00 | 0.00 | 0.00 | 98 | 1018.5 |
| 20260507040107 | 9 | 69 | 0.0 | 0.0 | 0.00 | 0.00 | 0.00 | 98 | 1018.4 |
| 20260507034927 | 9 | 113 | 0.0 | 0.0 | 0.00 | 0.00 | 0.00 | 98 | 1018.3 |
| 20260507033800 | 10 | 143 | 0.0 | 0.0 | 0.00 | 0.00 | 0.00 | 98 | 1018.2 |
| 20260507032633 | 10 | 144 | 0.0 | 4.8 | 0.00 | 0.00 | 0.00 | 97 | 1018.1 |
| 20260507031505 | 10 | 165 | 0.0 | 0.0 | 0.00 | 0.00 | 0.00 | 96 | 1018.0 |
| 20260507030337 | 10 | 171 | 0.0 | 0.0 | 0.00 | 0.00 | 0.00 | 95 | 1018.1 |
| 20260507025210 | 11 | 318 | 0.0 | 6.4 | 0.00 | 0.00 | 0.00 | 93 | 1018.0 |
| 20260507024042 | 10 | 306 | 0.0 | 3.2 | 0.00 | 0.00 | 0.00 | 94 | 1018.0 |
| 20260507022915 | 11 | 127 | 0.0 | 6.4 | 0.00 | 0.00 | 0.00 | 94 | 1017.7 |
| 20260507021748 | 11 | 84 | 3.2 | 8.0 | 0.00 | 0.00 | 0.00 | 94 | 1017.6 |
| 20260507020620 | 10 | 140 | 4.8 | 4.8 | 0.00 | 0.00 | 0.00 | 95 | 1017.6 |
| 20260507015452 | 10 | 191 | 0.0 | 6.4 | 0.00 | 0.00 | 0.00 | 95 | 1017.5 |
| 20260507014325 | 11 | 125 | 0.0 | 0.0 | 0.00 | 0.00 | 0.00 | 95 | 1017.4 |
| 20260507013157 | 11 | 48 | 0.0 | 0.0 | 0.00 | 0.00 | 0.00 | 92 | 1017.5 |
| 20260507012030 | 11 | 132 | 0.0 | 0.0 | 0.00 | 0.00 | 0.00 | 94 | 1017.4 |
| 20260507010902 | 11 | 132 | 0.0 | 0.0 | 0.00 | 0.00 | 0.00 | 93 | 1017.5 |
| 20260507005735 | 11 | 132 | 0.0 | 0.0 | 0.00 | 0.00 | 0.00 | 92 | 1017.7 |
| 20260507004607 | 11 | 132 | 0.0 | 3.2 | 0.00 | 0.00 | 0.00 | 92 | 1017.8 |
| 20260507003440 | 12 | 131 | 0.0 | 0.0 | 0.00 | 0.00 | 0.00 | 90 | 1017.8 |
| 20260507002312 | 12 | 339 | 0.0 | 0.0 | 0.00 | 0.00 | 0.00 | 89 | 1017.7 |
| 20260507001145 | 13 | 18 | 3.2 | 4.8 | 0.00 | 0.00 | 0.00 | 85 | 1017.7 |
| 20260507000017 | 12 | 342 | 3.2 | 3.2 | 0.00 | 0.00 | 0.00 | 84 | 1017.5 |
| 20260506234850 | 12 | 350 | 0.0 | 6.4 | 0.00 | 0.00 | 0.00 | 84 | 1017.5 |
| 20260506233722 | 12 | 348 | 4.8 | 8.0 | 0.00 | 0.00 | 0.00 | 85 | 1017.5 |
| 20260506232555 | 13 | 357 | 0.0 | 1.6 | 0.00 | 0.00 | 0.00 | 83 | 1017.4 |
| 20260506231427 | 13 | 204 | 0.0 | 4.8 | 0.00 | 0.00 | 0.00 | 82 | 1017.2 |
| 20260506230300 | 13 | 72 | 0.0 | 4.8 | 0.00 | 0.00 | 0.00 | 82 | 1017.1 |
| 20260506225132 | 13 | 354 | 0.0 | 3.2 | 0.00 | 0.00 | 0.76 | 81 | 1016.9 |
| 20260506224005 | 14 | 354 | 0.0 | 6.4 | 0.00 | 0.00 | 0.76 | 77 | 1016.8 |
| 20260506222837 | 14 | 348 | 4.8 | 6.4 | 0.00 | 0.00 | 0.76 | 77 | 1016.8 |
| 20260506221710 | 15 | 79 | 0.0 | 6.4 | 0.00 | 0.00 | 0.76 | 74 | 1016.7 |
| 20260506220529 | 15 | 222 | 4.8 | 11.3 | 0.00 | 0.00 | 0.76 | 74 | 1016.7 |
| 20260506215402 | 15 | 198 | 1.6 | 16.1 | 0.00 | 0.00 | 0.76 | 72 | 1016.7 |
| 20260506214234 | 15 | 154 | 0.0 | 22.5 | 0.00 | 0.00 | 0.76 | 72 | 1016.5 |
| 20260506213107 | 15 | 202 | 4.8 | 19.3 | 0.00 | 0.00 | 0.76 | 72 | 1016.1 |
| 20260506211939 | 15 | 174 | 11.3 | 20.9 | 0.00 | 0.00 | 0.76 | 72 | 1015.9 |
| 20260506210812 | 15 | 186 | 14.5 | 32.2 | 0.00 | 0.00 | 0.76 | 71 | 1015.9 |
| 20260506205645 | 16 | 132 | 14.5 | 25.7 | 0.00 | 0.00 | 0.76 | 70 | 1015.9 |
| 20260506204517 | 16 | 144 | 20.9 | 24.1 | 0.00 | 0.00 | 0.76 | 70 | 1016.0 |
| 20260506203337 | 16 | 201 | 8.0 | 20.9 | 0.00 | 0.00 | 0.76 | 70 | 1015.9 |
| 20260506202210 | 16 | 180 | 14.5 | 19.3 | 0.00 | 0.00 | 0.76 | 71 | 1016.0 |
| 20260506201042 | 15 | 220 | 6.4 | 14.5 | 0.00 | 0.00 | 0.76 | 72 | 1015.8 |
| 20260506195914 | 15 | 174 | 17.7 | 19.3 | 0.00 | 0.00 | 0.76 | 72 | 1015.7 |
| 20260506194746 | 16 | 226 | 9.7 | 30.6 | 0.00 | 0.00 | 0.76 | 71 | 1015.5 |
| 20260506193619 | 16 | 202 | 11.3 | 22.5 | 0.00 | 0.00 | 0.76 | 71 | 1015.3 |
| 20260506192451 | 16 | 77 | 19.3 | 22.5 | 0.00 | 0.00 | 0.76 | 70 | 1015.2 |
| 20260506191323 | 16 | 162 | 8.0 | 27.4 | 0.00 | 0.00 | 0.76 | 70 | 1015.0 |
| 20260506190156 | 16 | 132 | 11.3 | 29.0 | 0.00 | 0.00 | 0.76 | 70 | 1015.0 |
| 20260506185029 | 16 | 160 | 12.9 | 27.4 | 0.00 | 0.00 | 0.76 | 70 | 1014.9 |
| 20260506183901 | 16 | 210 | 11.3 | 30.6 | 0.00 | 0.00 | 0.76 | 71 | 1014.6 |
| 20260506182733 | 16 | 192 | 16.1 | 27.4 | 0.00 | 0.00 | 0.76 | 70 | 1014.5 |
| 20260506181606 | 16 | 168 | 14.5 | 37.0 | 0.00 | 0.00 | 0.76 | 70 | 1014.2 |
| 20260506180439 | 16 | 207 | 11.3 | 43.5 | 0.00 | 0.00 | 0.76 | 70 | 1014.1 |
| 20260506175311 | 16 | 90 | 11.3 | 32.2 | 0.00 | 0.00 | 0.76 | 70 | 1013.8 |
| 20260506174144 | 16 | 120 | 24.1 | 30.6 | 0.00 | 0.00 | 0.76 | 70 | 1013.7 |
| 20260506173016 | 16 | 196 | 20.9 | 37.0 | 0.00 | 0.00 | 0.76 | 68 | 1013.5 |
| 20260506171849 | 17 | 210 | 35.4 | 41.8 | 0.00 | 0.00 | 0.76 | 68 | 1013.2 |
| 20260506170709 | 17 | 175 | 20.9 | 37.0 | 0.00 | 0.00 | 0.76 | 67 | 1013.2 |
| 20260506165541 | 16 | 210 | 8.0 | 22.5 | 0.00 | 0.00 | 0.76 | 66 | 1013.1 |
| 20260506164414 | 17 | 269 | 19.3 | 24.1 | 0.00 | 0.00 | 0.76 | 65 | 1013.3 |
| 20260506163246 | 17 | 214 | 24.1 | 35.4 | 0.00 | 0.00 | 0.76 | 65 | 1013.2 |
| 20260506162119 | 17 | 204 | 20.9 | 32.2 | 0.00 | 0.00 | 0.76 | 63 | 1013.1 |
| 20260506160951 | 17 | 204 | 11.3 | 46.7 | 0.00 | 0.00 | 0.76 | 63 | 1013.1 |
| 20260506155824 | 18 | 144 | 16.1 | 27.4 | 0.00 | 0.00 | 0.76 | 60 | 1013.2 |
| 20260506154644 | 18 | 138 | 8.0 | 25.7 | 0.00 | 0.00 | 0.76 | 59 | 1013.1 |
| 20260506153516 | 18 | 188 | 17.7 | 29.0 | 0.00 | 0.00 | 0.76 | 59 | 1013.1 |
| 20260506152349 | 18 | 150 | 14.5 | 25.7 | 0.00 | 0.00 | 0.76 | 60 | 1012.9 |
| 20260506151221 | 18 | 180 | 11.3 | 32.2 | 0.00 | 0.00 | 0.76 | 59 | 1012.9 |
| 20260506150054 | 18 | 221 | 29.0 | 35.4 | 0.00 | 0.00 | 0.76 | 60 | 1013.1 |
| 20260506144926 | 18 | 226 | 22.5 | 30.6 | 0.00 | 0.00 | 0.76 | 58 | 1013.2 |
| 20260506143759 | 18 | 246 | 6.4 | 37.0 | 0.00 | 0.00 | 0.76 | 57 | 1013.4 |
| 20260506142631 | 18 | 120 | 25.7 | 33.8 | 0.00 | 0.00 | 0.76 | 58 | 1013.5 |
| 20260506141504 | 18 | 204 | 14.5 | 38.6 | 0.00 | 0.00 | 0.76 | 57 | 1013.4 |
| 20260506140336 | 18 | 222 | 24.1 | 43.5 | 0.00 | 0.00 | 0.76 | 57 | 1013.5 |
| 20260506135209 | 19 | 96 | 16.1 | 35.4 | 0.00 | 0.00 | 0.76 | 58 | 1013.6 |
| 20260506134041 | 18 | 186 | 32.2 | 43.5 | 0.00 | 0.00 | 0.76 | 60 | 1013.7 |
| 20260506132914 | 18 | 187 | 8.0 | 32.2 | 0.00 | 0.00 | 0.76 | 61 | 1013.7 |
| 20260506131746 | 18 | 181 | 40.2 | 46.7 | 0.00 | 0.00 | 0.76 | 59 | 1013.6 |
| 20260506130606 | 19 | 205 | 14.5 | 35.4 | 0.00 | 0.00 | 0.76 | 58 | 1013.6 |
| 20260506125439 | 19 | 182 | 19.3 | 24.1 | 0.00 | 0.00 | 0.76 | 56 | 1013.6 |
| 20260506124311 | 20 | 114 | 17.7 | 33.8 | 0.00 | 0.00 | 0.76 | 59 | 1013.7 |
| 20260506123144 | 20 | 224 | 22.5 | 24.1 | 0.00 | 0.00 | 0.76 | 58 | 1013.6 |